sensor_id;sensor_type;location;lat;lon;timestamp;pressure;altitude;pressure_sealevel;temperature;humidity
55456;BME280;63021;52.836;6.376;2023-05-19T00:00:40;102964.06;;;8.87;65.84
55456;BME280;63021;52.836;6.376;2023-05-19T00:03:05;102957.13;;;8.84;65.19
55456;BME280;63021;52.836;6.376;2023-05-19T00:05:34;102964.25;;;8.83;65.83
55456;BME280;63021;52.836;6.376;2023-05-19T00:08:01;102961.59;;;8.83;65.50
55456;BME280;63021;52.836;6.376;2023-05-19T00:10:28;102956.31;;;8.82;65.59
55456;BME280;63021;52.836;6.376;2023-05-19T00:12:56;102954.72;;;8.79;65.40
55456;BME280;63021;52.836;6.376;2023-05-19T00:15:22;102960.97;;;8.78;65.50
55456;BME280;63021;52.836;6.376;2023-05-19T00:17:47;102956.59;;;8.77;65.45
55456;BME280;63021;52.836;6.376;2023-05-19T00:20:13;102951.44;;;8.74;65.59
55456;BME280;63021;52.836;6.376;2023-05-19T00:22:39;102952.38;;;8.73;66.42
55456;BME280;63021;52.836;6.376;2023-05-19T00:25:08;102948.88;;;8.73;65.87
55456;BME280;63021;52.836;6.376;2023-05-19T00:27:34;102956.00;;;8.72;66.37
55456;BME280;63021;52.836;6.376;2023-05-19T00:29:59;102948.03;;;8.72;65.86
55456;BME280;63021;52.836;6.376;2023-05-19T00:32:25;102949.91;;;8.70;66.43
55456;BME280;63021;52.836;6.376;2023-05-19T00:34:50;102944.84;;;8.65;65.98
55456;BME280;63021;52.836;6.376;2023-05-19T00:37:16;102943.13;;;8.64;66.41
55456;BME280;63021;52.836;6.376;2023-05-19T00:39:41;102940.63;;;8.61;66.66
55456;BME280;63021;52.836;6.376;2023-05-19T00:42:07;102933.59;;;8.60;66.73
55456;BME280;63021;52.836;6.376;2023-05-19T00:44:35;102945.19;;;8.59;66.16
55456;BME280;63021;52.836;6.376;2023-05-19T00:47:01;102936.34;;;8.59;66.52
55456;BME280;63021;52.836;6.376;2023-05-19T00:49:27;102939.94;;;8.58;66.86
55456;BME280;63021;52.836;6.376;2023-05-19T00:51:53;102930.34;;;8.55;66.80
55456;BME280;63021;52.836;6.376;2023-05-19T00:54:19;102938.41;;;8.54;67.42
55456;BME280;63021;52.836;6.376;2023-05-19T00:56:45;102929.63;;;8.52;66.98
55456;BME280;63021;52.836;6.376;2023-05-19T00:59:10;102925.28;;;8.51;66.99
55456;BME280;63021;52.836;6.376;2023-05-19T01:01:36;102926.31;;;8.48;67.34
55456;BME280;63021;52.836;6.376;2023-05-19T01:04:01;102924.72;;;8.44;67.70
55456;BME280;63021;52.836;6.376;2023-05-19T01:06:27;102927.31;;;8.45;67.35
55456;BME280;63021;52.836;6.376;2023-05-19T01:08:53;102922.16;;;8.42;67.30
55456;BME280;63021;52.836;6.376;2023-05-19T01:11:20;102921.22;;;8.43;67.21
55456;BME280;63021;52.836;6.376;2023-05-19T01:13:45;102919.56;;;8.41;66.86
55456;BME280;63021;52.836;6.376;2023-05-19T01:32:47;102918.34;;;8.30;67.29
55456;BME280;63021;52.836;6.376;2023-05-19T01:35:13;102919.38;;;8.28;67.36
55456;BME280;63021;52.836;6.376;2023-05-19T01:37:40;102909.78;;;8.25;67.70
55456;BME280;63021;52.836;6.376;2023-05-19T01:40:06;102910.78;;;8.23;68.09
55456;BME280;63021;52.836;6.376;2023-05-19T01:42:32;102910.09;;;8.19;67.91
55456;BME280;63021;52.836;6.376;2023-05-19T01:45:02;102907.53;;;8.18;68.52
55456;BME280;63021;52.836;6.376;2023-05-19T01:47:30;102906.56;;;8.19;68.54
55456;BME280;63021;52.836;6.376;2023-05-19T01:49:56;102906.56;;;8.19;68.90
55456;BME280;63021;52.836;6.376;2023-05-19T01:52:21;102904.97;;;8.16;68.25
55456;BME280;63021;52.836;6.376;2023-05-19T01:54:47;102904.97;;;8.16;68.83
55456;BME280;63021;52.836;6.376;2023-05-19T02:00:32;102901.59;;;8.12;68.87
55456;BME280;63021;52.836;6.376;2023-05-19T02:03:28;102895.53;;;8.10;69.04
55456;BME280;63021;52.836;6.376;2023-05-19T02:06:22;102899.19;;;8.08;68.66
55456;BME280;63021;52.836;6.376;2023-05-19T02:08:56;102896.69;;;8.05;68.24
55456;BME280;63021;52.836;6.376;2023-05-19T02:11:41;102901.13;;;8.04;69.05
55456;BME280;63021;52.836;6.376;2023-05-19T02:14:19;102893.25;;;8.03;68.44
55456;BME280;63021;52.836;6.376;2023-05-19T02:16:47;102889.84;;;8.01;68.91
55456;BME280;63021;52.836;6.376;2023-05-19T02:19:31;102897.72;;;8.02;69.18
55456;BME280;63021;52.836;6.376;2023-05-19T02:21:57;102892.50;;;8.01;68.96
55456;BME280;63021;52.836;6.376;2023-05-19T02:24:23;102894.25;;;8.00;69.04
55456;BME280;63021;52.836;6.376;2023-05-19T02:26:52;102900.53;;;7.99;68.79
55456;BME280;63021;52.836;6.376;2023-05-19T02:29:18;102899.72;;;7.97;68.74
55456;BME280;63021;52.836;6.376;2023-05-19T02:31:43;102893.66;;;7.95;69.19
55456;BME280;63021;52.836;6.376;2023-05-19T02:34:09;102892.81;;;7.94;69.97
55456;BME280;63021;52.836;6.376;2023-05-19T02:36:34;102888.44;;;7.93;69.36
55456;BME280;63021;52.836;6.376;2023-05-19T02:39:03;102879.69;;;7.91;69.89
55456;BME280;63021;52.836;6.376;2023-05-19T02:41:29;102884.16;;;7.91;68.71
55456;BME280;63021;52.836;6.376;2023-05-19T02:43:55;102884.16;;;7.91;69.52
55456;BME280;63021;52.836;6.376;2023-05-19T02:46:20;102876.34;;;7.88;69.24
55456;BME280;63021;52.836;6.376;2023-05-19T02:48:45;102877.44;;;7.84;69.45
55456;BME280;63021;52.836;6.376;2023-05-19T02:51:14;102873.88;;;7.85;69.28
55456;BME280;63021;52.836;6.376;2023-05-19T02:53:39;102877.44;;;7.84;69.25
55456;BME280;63021;52.836;6.376;2023-05-19T02:56:05;102870.56;;;7.79;68.60
55456;BME280;63021;52.836;6.376;2023-05-19T02:58:30;102877.53;;;7.82;68.56
55456;BME280;63021;52.836;6.376;2023-05-19T03:00:55;102866.28;;;7.77;68.86
55456;BME280;63021;52.836;6.376;2023-05-19T03:03:21;102869.00;;;7.75;68.64
55456;BME280;63021;52.836;6.376;2023-05-19T03:05:46;102861.31;;;7.71;69.41
55456;BME280;63021;52.836;6.376;2023-05-19T03:08:12;102868.50;;;7.69;68.73
55456;BME280;63021;52.836;6.376;2023-05-19T03:10:38;102867.69;;;7.67;68.86
55456;BME280;63021;52.836;6.376;2023-05-19T03:13:03;102874.00;;;7.64;69.55
55456;BME280;63021;52.836;6.376;2023-05-19T03:15:29;102868.94;;;7.59;69.77
55456;BME280;63021;52.836;6.376;2023-05-19T03:17:55;102879.63;;;7.58;69.35
55456;BME280;63021;52.836;6.376;2023-05-19T03:20:20;102869.94;;;7.57;69.51
55456;BME280;63021;52.836;6.376;2023-05-19T03:22:46;102873.63;;;7.54;69.86
55456;BME280;63021;52.836;6.376;2023-05-19T03:25:11;102875.31;;;7.55;69.90
55456;BME280;63021;52.836;6.376;2023-05-19T03:27:37;102870.09;;;7.54;69.63
55456;BME280;63021;52.836;6.376;2023-05-19T03:30:03;102876.22;;;7.56;69.79
55456;BME280;63021;52.836;6.376;2023-05-19T03:32:29;102875.31;;;7.55;69.36
55456;BME280;63021;52.836;6.376;2023-05-19T03:34:56;102870.91;;;7.56;69.62
55456;BME280;63021;52.836;6.376;2023-05-19T03:37:21;102877.06;;;7.56;69.54
55456;BME280;63021;52.836;6.376;2023-05-19T03:39:47;102875.25;;;7.57;69.50
55456;BME280;63021;52.836;6.376;2023-05-19T03:42:12;102868.25;;;7.56;69.51
55456;BME280;63021;52.836;6.376;2023-05-19T03:44:38;102868.25;;;7.56;69.97
55456;BME280;63021;52.836;6.376;2023-05-19T03:47:03;102872.59;;;7.57;69.96
55456;BME280;63021;52.836;6.376;2023-05-19T03:49:29;102871.59;;;7.59;69.39
55456;BME280;63021;52.836;6.376;2023-05-19T03:51:54;102865.44;;;7.59;69.44
55456;BME280;63021;52.836;6.376;2023-05-19T03:54:20;102876.97;;;7.58;69.84
55456;BME280;63021;52.836;6.376;2023-05-19T03:56:46;102876.97;;;7.58;69.85
55456;BME280;63021;52.836;6.376;2023-05-19T03:59:12;102876.97;;;7.58;69.95
55456;BME280;63021;52.836;6.376;2023-05-19T04:01:37;102874.41;;;7.56;70.05
55456;BME280;63021;52.836;6.376;2023-05-19T04:04:03;102874.41;;;7.56;69.46
55456;BME280;63021;52.836;6.376;2023-05-19T04:06:28;102874.47;;;7.55;70.30
55456;BME280;63021;52.836;6.376;2023-05-19T04:08:55;102880.72;;;7.54;69.47
55456;BME280;63021;52.836;6.376;2023-05-19T04:11:20;102878.13;;;7.52;69.98
55456;BME280;63021;52.836;6.376;2023-05-19T04:13:45;102887.00;;;7.51;69.18
55456;BME280;63021;52.836;6.376;2023-05-19T04:16:11;102878.28;;;7.49;69.68
55456;BME280;63021;52.836;6.376;2023-05-19T04:18:37;102879.31;;;7.46;69.72
55456;BME280;63021;52.836;6.376;2023-05-19T04:21:02;102880.22;;;7.45;70.11
55456;BME280;63021;52.836;6.376;2023-05-19T04:23:28;102883.84;;;7.44;70.23
55456;BME280;63021;52.836;6.376;2023-05-19T04:25:53;102886.47;;;7.44;70.00
55456;BME280;63021;52.836;6.376;2023-05-19T04:28:21;102889.91;;;7.46;70.43
55456;BME280;63021;52.836;6.376;2023-05-19T04:30:48;102887.25;;;7.46;70.67
55456;BME280;63021;52.836;6.376;2023-05-19T04:33:14;102893.34;;;7.49;69.72
55456;BME280;63021;52.836;6.376;2023-05-19T04:35:40;102898.66;;;7.49;70.64
55456;BME280;63021;52.836;6.376;2023-05-19T04:38:05;102888.91;;;7.49;70.00
55456;BME280;63021;52.836;6.376;2023-05-19T04:40:31;102888.75;;;7.52;70.15
55456;BME280;63021;52.836;6.376;2023-05-19T04:42:56;102881.44;;;7.57;70.21
55456;BME280;63021;52.836;6.376;2023-05-19T04:45:23;102883.84;;;7.62;70.49
55456;BME280;63021;52.836;6.376;2023-05-19T04:47:50;102885.41;;;7.66;70.46
55456;BME280;63021;52.836;6.376;2023-05-19T04:50:16;102878.94;;;7.72;70.54
55456;BME280;63021;52.836;6.376;2023-05-19T04:52:42;102873.38;;;7.76;71.56
55456;BME280;63021;52.836;6.376;2023-05-19T04:55:09;102875.72;;;7.83;70.75
55456;BME280;63021;52.836;6.376;2023-05-19T04:57:35;102873.88;;;7.85;70.48
55456;BME280;63021;52.836;6.376;2023-05-19T05:00:02;102879.69;;;7.91;70.52
55456;BME280;63021;52.836;6.376;2023-05-19T05:02:31;102879.47;;;7.96;70.90
55456;BME280;63021;52.836;6.376;2023-05-19T05:04:58;102871.34;;;7.99;72.18
55456;BME280;63021;52.836;6.376;2023-05-19T05:07:23;102874.59;;;8.04;72.00
55456;BME280;63021;52.836;6.376;2023-05-19T05:09:49;102873.34;;;8.11;71.11
55456;BME280;63021;52.836;6.376;2023-05-19T05:12:16;102879.09;;;8.20;71.48
55456;BME280;63021;52.836;6.376;2023-05-19T05:14:41;102884.97;;;8.26;72.25
55456;BME280;63021;52.836;6.376;2023-05-19T05:17:07;102883.78;;;8.32;72.78
55456;BME280;63021;52.836;6.376;2023-05-19T05:19:34;102887.81;;;8.39;72.12
55456;BME280;63021;52.836;6.376;2023-05-19T05:21:59;102882.25;;;8.44;72.62
55456;BME280;63021;52.836;6.376;2023-05-19T05:24:25;102888.13;;;8.51;72.61
55456;BME280;63021;52.836;6.376;2023-05-19T05:26:51;102887.69;;;8.58;72.76
55456;BME280;63021;52.836;6.376;2023-05-19T05:29:16;102887.03;;;8.71;72.44
55456;BME280;63021;52.836;6.376;2023-05-19T05:31:42;102887.44;;;8.79;72.46
55456;BME280;63021;52.836;6.376;2023-05-19T05:34:07;102888.72;;;8.88;73.07
55456;BME280;63021;52.836;6.376;2023-05-19T05:36:33;102882.22;;;8.93;72.71
55456;BME280;63021;52.836;6.376;2023-05-19T05:38:59;102896.63;;;9.05;72.85
55456;BME280;63021;52.836;6.376;2023-05-19T05:41:30;102892.44;;;9.17;72.28
55456;BME280;63021;52.836;6.376;2023-05-19T05:44:00;102885.63;;;9.27;73.03
55456;BME280;63021;52.836;6.376;2023-05-19T05:46:25;102891.19;;;9.39;72.41
55456;BME280;63021;52.836;6.376;2023-05-19T05:48:51;102884.28;;;9.50;72.39
55456;BME280;63021;52.836;6.376;2023-05-19T05:51:16;102895.16;;;9.62;72.95
55456;BME280;63021;52.836;6.376;2023-05-19T05:53:44;102896.22;;;9.74;72.36
55456;BME280;63021;52.836;6.376;2023-05-19T05:56:12;102892.94;;;9.84;72.44
55456;BME280;63021;52.836;6.376;2023-05-19T05:58:37;102890.66;;;9.93;71.81
55456;BME280;63021;52.836;6.376;2023-05-19T06:01:04;102901.50;;;10.04;71.66
55456;BME280;63021;52.836;6.376;2023-05-19T06:03:34;102900.03;;;10.14;71.75
55456;BME280;63021;52.836;6.376;2023-05-19T06:06:02;102893.19;;;10.25;71.29
55456;BME280;63021;52.836;6.376;2023-05-19T06:08:28;102891.75;;;10.33;71.59
55456;BME280;63021;52.836;6.376;2023-05-19T06:10:53;102890.38;;;10.42;71.12
55456;BME280;63021;52.836;6.376;2023-05-19T06:13:18;102894.34;;;10.49;70.68
55456;BME280;63021;52.836;6.376;2023-05-19T06:15:48;102897.09;;;10.62;70.73
55456;BME280;63021;52.836;6.376;2023-05-19T06:18:13;102894.81;;;10.70;70.38
55456;BME280;63021;52.836;6.376;2023-05-19T06:20:39;102896.69;;;10.83;70.43
55456;BME280;63021;52.836;6.376;2023-05-19T06:23:04;102890.88;;;10.90;70.90
55456;BME280;63021;52.836;6.376;2023-05-19T06:25:29;102892.09;;;10.99;70.04
55456;BME280;63021;52.836;6.376;2023-05-19T06:27:55;102906.31;;;11.13;69.50
55456;BME280;63021;52.836;6.376;2023-05-19T06:30:20;102891.63;;;11.20;69.82
55456;BME280;63021;52.836;6.376;2023-05-19T06:32:46;102896.19;;;11.32;69.34
55456;BME280;63021;52.836;6.376;2023-05-19T06:35:14;102886.72;;;11.41;68.62
55456;BME280;63021;52.836;6.376;2023-05-19T06:37:40;102900.28;;;11.51;68.04
55456;BME280;63021;52.836;6.376;2023-05-19T06:40:06;102899.66;;;11.60;68.29
55456;BME280;63021;52.836;6.376;2023-05-19T06:42:32;102894.56;;;11.70;67.73
55456;BME280;63021;52.836;6.376;2023-05-19T06:44:58;102890.41;;;11.78;67.82
55456;BME280;63021;52.836;6.376;2023-05-19T06:47:23;102895.97;;;11.88;67.60
55456;BME280;63021;52.836;6.376;2023-05-19T06:49:49;102888.19;;;11.98;67.19
55456;BME280;63021;52.836;6.376;2023-05-19T06:52:21;102892.94;;;12.07;66.35
55456;BME280;63021;52.836;6.376;2023-05-19T06:54:47;102895.91;;;12.16;65.84
55456;BME280;63021;52.836;6.376;2023-05-19T06:57:13;102895.38;;;12.23;65.46
55456;BME280;63021;52.836;6.376;2023-05-19T06:59:39;102894.81;;;12.31;65.50
55456;BME280;63021;52.836;6.376;2023-05-19T07:02:08;102894.41;;;12.37;64.94
55456;BME280;63021;52.836;6.376;2023-05-19T07:04:34;102897.38;;;12.45;64.11
55456;BME280;63021;52.836;6.376;2023-05-19T07:06:59;102899.53;;;12.53;64.05
55456;BME280;63021;52.836;6.376;2023-05-19T07:09:25;102897.34;;;12.58;63.47
55456;BME280;63021;52.836;6.376;2023-05-19T07:11:50;102900.44;;;12.65;63.26
55456;BME280;63021;52.836;6.376;2023-05-19T07:14:16;102894.88;;;12.68;63.50
55456;BME280;63021;52.836;6.376;2023-05-19T07:16:44;102897.97;;;12.75;63.34
55456;BME280;63021;52.836;6.376;2023-05-19T07:19:10;102890.38;;;12.81;62.74
55456;BME280;63021;52.836;6.376;2023-05-19T07:21:36;102899.75;;;12.87;62.15
55456;BME280;63021;52.836;6.376;2023-05-19T07:24:01;102895.75;;;12.93;62.07
55456;BME280;63021;52.836;6.376;2023-05-19T07:26:27;102892.66;;;12.99;61.18
55456;BME280;63021;52.836;6.376;2023-05-19T07:28:53;102895.59;;;13.07;61.12
55456;BME280;63021;52.836;6.376;2023-05-19T07:31:18;102893.22;;;13.15;61.14
55456;BME280;63021;52.836;6.376;2023-05-19T07:33:44;102889.88;;;13.25;60.65
55456;BME280;63021;52.836;6.376;2023-05-19T07:36:09;102883.84;;;13.34;60.59
55456;BME280;63021;52.836;6.376;2023-05-19T07:38:35;102882.78;;;13.37;59.90
55456;BME280;63021;52.836;6.376;2023-05-19T07:41:01;102880.41;;;13.45;59.31
55456;BME280;63021;52.836;6.376;2023-05-19T07:43:26;102901.44;;;13.49;58.70
55456;BME280;63021;52.836;6.376;2023-05-19T07:45:52;102891.16;;;13.56;58.44
55456;BME280;63021;52.836;6.376;2023-05-19T07:48:18;102905.00;;;13.61;57.87
55456;BME280;63021;52.836;6.376;2023-05-19T07:50:47;102885.81;;;13.67;57.37
55456;BME280;63021;52.836;6.376;2023-05-19T07:53:13;102898.97;;;13.71;57.12
55456;BME280;63021;52.836;6.376;2023-05-19T07:55:38;102886.06;;;13.76;56.28
55456;BME280;63021;52.836;6.376;2023-05-19T07:58:03;102885.72;;;13.80;56.16
55456;BME280;63021;52.836;6.376;2023-05-19T08:00:29;102884.50;;;13.84;56.02
55456;BME280;63021;52.836;6.376;2023-05-19T08:02:54;102871.50;;;13.91;55.82
55456;BME280;63021;52.836;6.376;2023-05-19T08:05:21;102879.94;;;13.98;55.34
55456;BME280;63021;52.836;6.376;2023-05-19T08:07:47;102877.97;;;14.00;54.78
55456;BME280;63021;52.836;6.376;2023-05-19T08:10:12;102876.41;;;14.09;54.12
55456;BME280;63021;52.836;6.376;2023-05-19T08:12:37;102861.78;;;14.13;54.20
55456;BME280;63021;52.836;6.376;2023-05-19T08:15:03;102865.31;;;14.25;54.20
55456;BME280;63021;52.836;6.376;2023-05-19T08:17:29;102867.41;;;14.32;53.73
55456;BME280;63021;52.836;6.376;2023-05-19T08:19:56;102866.91;;;14.38;53.60
55456;BME280;63021;52.836;6.376;2023-05-19T08:22:22;102858.38;;;14.45;53.14
55456;BME280;63021;52.836;6.376;2023-05-19T08:24:47;102864.09;;;14.51;53.18
55456;BME280;63021;52.836;6.376;2023-05-19T08:27:14;102868.00;;;14.59;52.18
55456;BME280;63021;52.836;6.376;2023-05-19T08:29:41;102857.75;;;14.64;51.71
55456;BME280;63021;52.836;6.376;2023-05-19T08:32:07;102853.75;;;14.69;52.16
55456;BME280;63021;52.836;6.376;2023-05-19T08:34:32;102856.06;;;14.74;52.20
55456;BME280;63021;52.836;6.376;2023-05-19T08:36:58;102857.41;;;14.80;51.92
55456;BME280;63021;52.836;6.376;2023-05-19T08:39:24;102854.47;;;14.83;50.69
55456;BME280;63021;52.836;6.376;2023-05-19T08:41:54;102850.78;;;14.84;50.15
55456;BME280;63021;52.836;6.376;2023-05-19T08:44:20;102840.94;;;14.84;50.35
55456;BME280;63021;52.836;6.376;2023-05-19T08:46:46;102843.22;;;14.89;50.51
55456;BME280;63021;52.836;6.376;2023-05-19T08:49:13;102832.72;;;14.97;50.03
55456;BME280;63021;52.836;6.376;2023-05-19T08:51:48;102835.84;;;15.02;49.99
55456;BME280;63021;52.836;6.376;2023-05-19T08:54:19;102830.84;;;15.09;49.24
55456;BME280;63021;52.836;6.376;2023-05-19T08:56:46;102829.47;;;15.15;49.63
55456;BME280;63021;52.836;6.376;2023-05-19T08:59:13;102826.66;;;15.16;48.51
55456;BME280;63021;52.836;6.376;2023-05-19T09:01:41;102827.97;;;15.22;48.48
55456;BME280;63021;52.836;6.376;2023-05-19T09:04:08;102830.28;;;15.27;48.60
55456;BME280;63021;52.836;6.376;2023-05-19T09:06:34;102823.53;;;15.32;48.82
55456;BME280;63021;52.836;6.376;2023-05-19T09:09:00;102815.97;;;15.37;48.74
55456;BME280;63021;52.836;6.376;2023-05-19T09:11:25;102818.38;;;15.40;48.78
55456;BME280;63021;52.836;6.376;2023-05-19T09:13:51;102817.97;;;15.45;48.43
55456;BME280;63021;52.836;6.376;2023-05-19T09:16:16;102814.06;;;15.49;48.27
55456;BME280;63021;52.836;6.376;2023-05-19T09:18:55;102811.44;;;15.59;48.23
55456;BME280;63021;52.836;6.376;2023-05-19T09:21:28;102811.88;;;15.64;47.55
55456;BME280;63021;52.836;6.376;2023-05-19T09:23:57;102804.41;;;15.68;47.33
55456;BME280;63021;52.836;6.376;2023-05-19T09:26:23;102800.75;;;15.69;47.19
55456;BME280;63021;52.836;6.376;2023-05-19T09:28:49;102796.94;;;15.71;47.09
55456;BME280;63021;52.836;6.376;2023-05-19T09:31:14;102798.13;;;15.79;47.17
55456;BME280;63021;52.836;6.376;2023-05-19T09:33:40;102791.78;;;15.80;47.40
55456;BME280;63021;52.836;6.376;2023-05-19T09:36:09;102785.31;;;15.82;46.92
55456;BME280;63021;52.836;6.376;2023-05-19T09:38:36;102784.06;;;15.86;46.90
55456;BME280;63021;52.836;6.376;2023-05-19T09:41:05;102793.41;;;15.92;47.08
55456;BME280;63021;52.836;6.376;2023-05-19T09:43:33;102785.78;;;15.97;46.96
55456;BME280;63021;52.836;6.376;2023-05-19T09:46:09;102779.03;;;16.03;45.89
55456;BME280;63021;52.836;6.376;2023-05-19T09:48:37;102782.03;;;16.09;46.14
55456;BME280;63021;52.836;6.376;2023-05-19T09:51:04;102784.03;;;16.17;46.68
55456;BME280;63021;52.836;6.376;2023-05-19T09:53:33;102780.91;;;16.22;46.09
55456;BME280;63021;52.836;6.376;2023-05-19T09:56:00;102777.41;;;16.31;46.08
55456;BME280;63021;52.836;6.376;2023-05-19T09:58:30;102779.41;;;16.39;45.21
55456;BME280;63021;52.836;6.376;2023-05-19T10:00:59;102779.72;;;16.45;45.93
55456;BME280;63021;52.836;6.376;2023-05-19T10:03:25;102775.78;;;16.50;44.15
55456;BME280;63021;52.836;6.376;2023-05-19T10:05:52;102783.41;;;16.54;43.32
55456;BME280;63021;52.836;6.376;2023-05-19T10:08:17;102784.25;;;16.55;43.67
55456;BME280;63021;52.836;6.376;2023-05-19T10:10:46;102788.50;;;16.57;43.72
55456;BME280;63021;52.836;6.376;2023-05-19T10:13:12;102782.00;;;16.60;42.81
55456;BME280;63021;52.836;6.376;2023-05-19T10:15:39;102772.09;;;16.60;42.56
55456;BME280;63021;52.836;6.376;2023-05-19T10:18:05;102773.50;;;16.65;43.00
55456;BME280;63021;52.836;6.376;2023-05-19T10:20:33;102774.78;;;16.70;43.12
55456;BME280;63021;52.836;6.376;2023-05-19T10:22:59;102767.16;;;16.75;42.92
55456;BME280;63021;52.836;6.376;2023-05-19T10:25:24;102762.19;;;16.80;42.77
55456;BME280;63021;52.836;6.376;2023-05-19T10:27:54;102759.38;;;16.82;42.44
55456;BME280;63021;52.836;6.376;2023-05-19T10:30:42;102747.22;;;16.88;42.77
55456;BME280;63021;52.836;6.376;2023-05-19T10:33:14;102749.38;;;16.94;43.06
55456;BME280;63021;52.836;6.376;2023-05-19T10:41:30;102739.97;;;17.18;41.82
55456;BME280;63021;52.836;6.376;2023-05-19T10:47:10;102735.84;;;17.33;41.51
55456;BME280;63021;52.836;6.376;2023-05-19T10:49:36;102740.34;;;17.42;42.01
55456;BME280;63021;52.836;6.376;2023-05-19T10:52:03;102736.22;;;17.48;41.38
55456;BME280;63021;52.836;6.376;2023-05-19T10:54:41;102728.25;;;17.56;41.18
55456;BME280;63021;52.836;6.376;2023-05-19T10:57:26;102733.63;;;17.66;41.07
55456;BME280;63021;52.836;6.376;2023-05-19T10:59:57;102718.72;;;17.72;40.07
55456;BME280;63021;52.836;6.376;2023-05-19T11:02:42;102715.25;;;17.79;40.33
55456;BME280;63021;52.836;6.376;2023-05-19T11:07:54;102716.34;;;17.96;40.21
55456;BME280;63021;52.836;6.376;2023-05-19T11:10:23;102724.97;;;18.00;40.17
55456;BME280;63021;52.836;6.376;2023-05-19T11:12:49;102725.94;;;18.09;40.59
55456;BME280;63021;52.836;6.376;2023-05-19T11:15:15;102723.16;;;18.18;40.66
55456;BME280;63021;52.836;6.376;2023-05-19T11:17:41;102726.78;;;18.27;39.95
55456;BME280;63021;52.836;6.376;2023-05-19T11:20:08;102726.03;;;18.35;40.05
55456;BME280;63021;52.836;6.376;2023-05-19T11:23:00;102728.84;;;18.43;40.18
55456;BME280;63021;52.836;6.376;2023-05-19T11:25:48;102724.38;;;18.52;40.61
55456;BME280;63021;52.836;6.376;2023-05-19T11:28:16;102709.94;;;18.61;41.10
55456;BME280;63021;52.836;6.376;2023-05-19T11:30:45;102711.94;;;18.77;39.89
55456;BME280;63021;52.836;6.376;2023-05-19T11:33:11;102705.31;;;18.90;40.63
55456;BME280;63021;52.836;6.376;2023-05-19T11:35:38;102705.91;;;19.01;40.59
55456;BME280;63021;52.836;6.376;2023-05-19T11:38:05;102709.84;;;19.07;40.15
55456;BME280;63021;52.836;6.376;2023-05-19T11:40:31;102703.97;;;19.12;39.35
55456;BME280;63021;52.836;6.376;2023-05-19T11:42:57;102699.78;;;19.17;38.51
55456;BME280;63021;52.836;6.376;2023-05-19T11:45:26;102694.28;;;19.27;39.13
55456;BME280;63021;52.836;6.376;2023-05-19T11:47:54;102701.41;;;19.36;39.05
55456;BME280;63021;52.836;6.376;2023-05-19T11:50:21;102691.81;;;19.42;38.75
55456;BME280;63021;52.836;6.376;2023-05-19T11:52:49;102699.47;;;19.47;38.61
55456;BME280;63021;52.836;6.376;2023-05-19T11:55:15;102692.88;;;19.49;38.51
55456;BME280;63021;52.836;6.376;2023-05-19T11:57:58;102696.94;;;19.53;39.03
55456;BME280;63021;52.836;6.376;2023-05-19T12:00:28;102693.75;;;19.58;38.28
55456;BME280;63021;52.836;6.376;2023-05-19T12:02:58;102693.63;;;19.60;37.86
55456;BME280;63021;52.836;6.376;2023-05-19T12:05:26;102697.66;;;19.64;37.41
55456;BME280;63021;52.836;6.376;2023-05-19T12:07:52;102699.19;;;19.66;38.03
55456;BME280;63021;52.836;6.376;2023-05-19T12:10:37;102685.91;;;19.73;37.19
55456;BME280;63021;52.836;6.376;2023-05-19T12:13:04;102691.63;;;19.78;38.25
55456;BME280;63021;52.836;6.376;2023-05-19T12:15:33;102680.22;;;19.84;38.69
55456;BME280;63021;52.836;6.376;2023-05-19T12:18:01;102684.63;;;19.94;37.92
55456;BME280;63021;52.836;6.376;2023-05-19T12:20:28;102671.16;;;20.02;38.12
55456;BME280;63021;52.836;6.376;2023-05-19T12:23:05;102671.34;;;20.17;37.03
55456;BME280;63021;52.836;6.376;2023-05-19T12:25:31;102662.75;;;20.30;38.33
55456;BME280;63021;52.836;6.376;2023-05-19T12:27:58;102677.97;;;20.47;37.93
55456;BME280;63021;52.836;6.376;2023-05-19T12:30:29;102669.19;;;20.53;36.98
55456;BME280;63021;52.836;6.376;2023-05-19T12:32:55;102678.69;;;20.57;37.05
55456;BME280;63021;52.836;6.376;2023-05-19T12:35:25;102677.16;;;20.63;37.09
55456;BME280;63021;52.836;6.376;2023-05-19T12:37:52;102673.41;;;20.64;37.66
55456;BME280;63021;52.836;6.376;2023-05-19T12:40:18;102678.50;;;20.67;36.66
55456;BME280;63021;52.836;6.376;2023-05-19T12:42:44;102672.28;;;20.67;37.49
55456;BME280;63021;52.836;6.376;2023-05-19T12:45:10;102673.97;;;20.68;36.56
55456;BME280;63021;52.836;6.376;2023-05-19T12:47:35;102676.34;;;20.71;35.96
55456;BME280;63021;52.836;6.376;2023-05-19T12:52:48;102665.50;;;20.71;36.18
55456;BME280;63021;52.836;6.376;2023-05-19T12:55:17;102662.59;;;20.64;36.41
55456;BME280;63021;52.836;6.376;2023-05-19T12:57:51;102664.16;;;20.67;36.04
55456;BME280;63021;52.836;6.376;2023-05-19T13:00:22;102658.88;;;20.65;35.87
55456;BME280;63021;52.836;6.376;2023-05-19T13:03:01;102657.56;;;20.69;36.31
55456;BME280;63021;52.836;6.376;2023-05-19T13:05:31;102653.16;;;20.76;36.41
55456;BME280;63021;52.836;6.376;2023-05-19T13:10:29;102654.50;;;20.81;36.64
55456;BME280;63021;52.836;6.376;2023-05-19T13:12:56;102652.16;;;20.77;35.68
55456;BME280;63021;52.836;6.376;2023-05-19T13:15:24;102663.16;;;20.76;35.79
55456;BME280;63021;52.836;6.376;2023-05-19T13:17:51;102643.16;;;20.77;35.97
55456;BME280;63021;52.836;6.376;2023-05-19T13:20:16;102650.28;;;20.86;36.76
55456;BME280;63021;52.836;6.376;2023-05-19T13:22:42;102650.75;;;20.98;35.60
55456;BME280;63021;52.836;6.376;2023-05-19T13:25:08;102647.16;;;21.06;35.33
55456;BME280;63021;52.836;6.376;2023-05-19T13:27:36;102640.72;;;21.15;35.78
55456;BME280;63021;52.836;6.376;2023-05-19T13:30:03;102633.06;;;21.27;35.60
55456;BME280;63021;52.836;6.376;2023-05-19T13:32:29;102640.66;;;21.40;36.06